createdAt,value
2022-07-30T00:02:00.108Z,97.39
2022-07-30T00:05:09.838Z,97.73
2022-07-30T00:08:10.530Z,97.63
2022-07-30T00:11:19.625Z,97.22
2022-07-30T00:14:22.501Z,97.05
2022-07-30T00:17:31.261Z,96.83
2022-07-30T00:20:47.049Z,96.84
2022-07-30T00:24:01.441Z,96.68
2022-07-30T00:27:06.466Z,96.57
2022-07-30T00:30:25.503Z,96.55
2022-07-30T00:33:27.787Z,96.71
2022-07-30T00:36:43.971Z,96.39
2022-07-30T00:39:45.307Z,96.65
2022-07-30T00:43:02.449Z,96.55
2022-07-30T00:46:15.435Z,96.46
2022-07-30T00:49:19.710Z,96.12
2022-07-30T00:52:31.882Z,96.47
2022-07-30T00:55:33.507Z,96.34
2022-07-30T00:58:45.301Z,96.92
2022-07-30T01:01:51.810Z,97.08
2022-07-30T01:05:08.139Z,97.41
2022-07-30T01:08:12.353Z,97.03
2022-07-30T01:11:21.362Z,96.99
2022-07-30T01:14:26.334Z,97.53
2022-07-30T01:17:34.144Z,97.83
2022-07-30T01:20:42.314Z,97.98
2022-07-30T01:23:57.034Z,97.86
2022-07-30T01:27:02.930Z,97.93
2022-07-30T01:30:16.917Z,98.32
2022-07-30T01:33:24.721Z,98.65
2022-07-30T01:36:49.572Z,98.82
2022-07-30T01:39:58.124Z,98.77
2022-07-30T01:43:14.420Z,98.80
2022-07-30T01:46:20.183Z,99.10
2022-07-30T01:49:33.156Z,99.37
2022-07-30T01:52:52.386Z,99.96
2022-07-30T01:56:02.208Z,100.00
2022-07-30T01:59:07.298Z,100.00
2022-07-30T02:02:20.722Z,99.95
2022-07-30T02:05:34.324Z,99.93
2022-07-30T02:08:53.917Z,99.76
2022-07-30T02:12:27.958Z,99.99
2022-07-30T02:15:50.277Z,99.87
2022-07-30T02:19:09.915Z,99.79
2022-07-30T02:22:28.616Z,99.79
2022-07-30T02:25:42.798Z,99.84
2022-07-30T02:32:22.979Z,99.75
2022-07-30T02:35:37.814Z,99.41
2022-07-30T02:38:47.918Z,99.21
2022-07-30T02:42:05.095Z,99.13
2022-07-30T02:45:08.259Z,98.90
2022-07-30T02:48:34.513Z,98.78
2022-07-30T02:51:46.080Z,98.70
2022-07-30T02:54:54.724Z,97.90
2022-07-30T02:57:59.044Z,97.80
2022-07-30T03:01:04.318Z,97.75
2022-07-30T03:04:13.877Z,97.36
2022-07-30T03:07:20.822Z,97.03
2022-07-30T03:10:31.650Z,97.45
2022-07-30T03:13:37.086Z,97.41
2022-07-30T03:16:54.670Z,97.48
2022-07-30T03:20:01.687Z,97.70
2022-07-30T03:23:34.150Z,97.51
2022-07-30T03:30:32.133Z,97.78
2022-07-30T03:53:16.298Z,98.20
2022-07-30T03:56:31.896Z,98.30
2022-07-30T04:03:16.938Z,97.55
2022-07-30T04:06:22.210Z,97.43
2022-07-30T04:09:50.646Z,97.16
2022-07-30T04:13:12.626Z,97.16
2022-07-30T04:16:39.337Z,97.76
2022-07-30T04:20:13.250Z,97.57
2022-07-30T04:23:19.326Z,96.36
2022-07-30T04:26:40.914Z,96.97
2022-07-30T04:29:52.759Z,96.95
2022-07-30T04:33:15.714Z,95.90
2022-07-30T04:36:28.229Z,95.30
2022-07-30T04:39:31.568Z,94.18
2022-07-30T04:42:51.529Z,94.84
2022-07-30T04:45:56.343Z,94.58
2022-07-30T04:49:25.719Z,94.72
2022-07-30T04:56:00.900Z,94.23
2022-07-30T04:59:19.263Z,93.55
2022-07-30T05:02:23.566Z,92.36
2022-07-30T05:05:40.186Z,92.75
2022-07-30T05:08:57.835Z,93.42
2022-07-30T05:12:28.338Z,93.79
2022-07-30T05:16:34.128Z,93.24
2022-07-30T05:19:40.626Z,93.46
2022-07-30T05:22:57.936Z,93.66
2022-07-30T05:30:00.532Z,93.30
2022-07-30T05:33:20.439Z,92.91
2022-07-30T05:40:50.246Z,91.83
2022-07-30T05:44:05.556Z,91.95
2022-07-30T05:47:08.948Z,92.31
2022-07-30T05:50:26.043Z,92.04
2022-07-30T05:53:39.876Z,92.63
2022-07-30T05:56:54.340Z,91.60
2022-07-30T06:00:08.072Z,90.63
2022-07-30T06:03:16.611Z,90.47
2022-07-30T06:06:27.311Z,90.02
2022-07-30T06:09:36.697Z,89.72
2022-07-30T06:13:09.299Z,89.28
2022-07-30T06:16:24.399Z,88.83
2022-07-30T06:19:50.194Z,88.14
2022-07-30T06:23:51.489Z,86.77
2022-07-30T06:46:03.437Z,86.48
2022-07-30T07:30:26.395Z,82.41
2022-07-30T08:40:26.637Z,55.33
2022-07-30T08:52:16.670Z,46.60
2022-07-30T08:59:03.946Z,40.07
2022-07-30T09:02:31.059Z,40.57
2022-07-30T09:05:31.232Z,43.69
2022-07-30T09:08:58.566Z,45.45
2022-07-30T09:12:04.181Z,49.50
2022-07-30T09:15:18.788Z,49.77
2022-07-30T09:18:48.305Z,47.50
2022-07-30T10:19:39.943Z,51.50
2022-07-30T16:23:14.924Z,51.99
2022-07-30T19:58:29.689Z,74.11
2022-07-30T20:10:41.972Z,77.28
2022-07-30T21:06:22.678Z,86.55
2022-07-30T21:09:52.029Z,86.44
2022-07-30T21:13:32.430Z,86.71
2022-07-30T21:16:55.850Z,86.79
2022-07-30T21:20:27.854Z,87.07
2022-07-30T21:23:41.340Z,87.45
2022-07-30T21:30:24.270Z,88.84
2022-07-30T21:33:37.287Z,89.86
2022-07-30T21:36:42.254Z,90.59
2022-07-30T21:39:58.762Z,90.99
2022-07-30T21:43:03.411Z,91.31
2022-07-30T21:46:24.923Z,91.66
2022-07-30T21:49:56.845Z,92.18
2022-07-30T21:57:01.290Z,93.28
2022-07-30T22:01:16.345Z,93.78
2022-07-30T22:05:23.906Z,94.61
2022-07-30T22:09:45.270Z,95.42
2022-07-30T22:13:22.361Z,95.56
2022-07-30T22:19:57.746Z,96.13
2022-07-30T22:23:09.847Z,96.11
2022-07-30T22:26:09.953Z,96.33
2022-07-30T22:29:19.221Z,96.15
2022-07-30T22:32:20.339Z,96.29
2022-07-30T22:36:06.138Z,96.41
2022-07-30T22:39:31.947Z,96.04
2022-07-30T22:43:07.491Z,96.16
2022-07-30T22:46:14.925Z,95.94
2022-07-30T22:50:17.368Z,96.04
2022-07-30T22:54:10.639Z,95.88
2022-07-30T23:00:27.965Z,96.47
2022-07-30T23:03:45.346Z,96.37
2022-07-30T23:06:53.362Z,96.53
2022-07-30T23:10:04.889Z,97.00
2022-07-30T23:13:24.225Z,97.11
2022-07-30T23:16:37.023Z,97.01
2022-07-30T23:23:02.979Z,96.88
2022-07-30T23:26:05.298Z,97.09
2022-07-30T23:29:14.667Z,97.17
2022-07-30T23:32:20.464Z,97.18
2022-07-30T23:35:28.204Z,97.71
2022-07-30T23:38:28.996Z,97.92
2022-07-30T23:41:48.283Z,97.72
2022-07-30T23:44:50.851Z,98.15
2022-07-30T23:48:02.499Z,97.69
2022-07-30T23:58:00.544Z,97.48
